createdAt,value
2018-02-27T00:00:52.027Z,16.15
2018-02-27T00:03:21.686Z,14.35
2018-02-27T00:05:50.951Z,12.23
2018-02-27T00:08:20.231Z,14.80
2018-02-27T00:10:49.959Z,15.35
2018-02-27T00:13:19.171Z,24.10
2018-02-27T00:15:48.870Z,14.25
2018-02-27T00:18:19.536Z,12.00
2018-02-27T00:20:48.787Z,12.68
2018-02-27T00:23:18.126Z,14.20
2018-02-27T00:25:50.052Z,17.35
2018-02-27T00:28:19.329Z,16.75
2018-02-27T00:30:48.563Z,22.73
2018-02-27T00:33:18.295Z,17.73
2018-02-27T00:35:48.358Z,17.20
2018-02-27T00:38:18.624Z,18.85
2018-02-27T00:40:48.227Z,17.40
2018-02-27T00:43:17.458Z,16.27
2018-02-27T00:45:47.324Z,18.95
2018-02-27T00:48:17.015Z,13.00
2018-02-27T00:50:46.259Z,13.75
2018-02-27T00:53:15.561Z,13.68
2018-02-27T00:55:45.415Z,11.43
2018-02-27T00:58:14.780Z,13.25
2018-02-27T01:00:44.131Z,12.30
2018-02-27T01:03:13.808Z,19.92
2018-02-27T01:05:43.029Z,18.67
2018-02-27T01:11:12.390Z,13.30
2018-02-27T01:13:41.590Z,13.50
2018-02-27T01:16:10.830Z,12.68
2018-02-27T01:18:40.575Z,16.92
2018-02-27T01:21:09.821Z,12.35
2018-02-27T01:23:39.120Z,22.02
2018-02-27T01:26:08.779Z,15.63
2018-02-27T01:28:38.100Z,15.45
2018-02-27T01:31:07.328Z,12.85
2018-02-27T01:33:37.125Z,11.93
2018-02-27T01:36:06.360Z,13.27
2018-02-27T01:38:35.673Z,11.43
2018-02-27T01:41:05.316Z,14.48
2018-02-27T01:43:34.535Z,13.80
2018-02-27T01:46:04.430Z,12.23
2018-02-27T01:48:34.193Z,10.88
2018-02-27T01:51:12.079Z,12.15
2018-02-27T01:53:41.327Z,11.10
2018-02-27T01:56:10.986Z,6.87
2018-02-27T01:58:40.274Z,16.95
2018-02-27T02:01:09.500Z,11.73
2018-02-27T02:03:40.173Z,10.02
2018-02-27T02:06:09.454Z,9.02
2018-02-27T02:08:38.803Z,11.73
2018-02-27T02:11:08.053Z,11.15
2018-02-27T02:13:37.422Z,15.60
2018-02-27T02:16:09.257Z,13.80
2018-02-27T02:18:38.644Z,11.85
2018-02-27T02:21:07.875Z,12.20
2018-02-27T02:23:37.623Z,9.60
2018-02-27T02:26:06.888Z,15.18
2018-02-27T02:28:36.268Z,10.10
2018-02-27T02:31:05.881Z,10.82
2018-02-27T02:33:35.208Z,10.18
2018-02-27T02:36:05.021Z,8.70
2018-02-27T02:38:34.350Z,8.40
2018-02-27T02:41:03.619Z,8.60
2018-02-27T02:43:33.426Z,10.40
2018-02-27T02:46:04.459Z,9.48
2018-02-27T02:48:33.703Z,12.18
2018-02-27T02:51:03.521Z,12.13
2018-02-27T02:53:32.734Z,8.55
2018-02-27T02:56:02.651Z,14.07
2018-02-27T02:58:32.313Z,10.00
2018-02-27T03:01:01.532Z,7.87
2018-02-27T03:03:30.759Z,5.72
2018-02-27T03:06:00.463Z,11.57
2018-02-27T03:08:29.794Z,10.82
2018-02-27T03:10:59.074Z,9.70
2018-02-27T03:13:28.710Z,16.52
2018-02-27T03:15:57.982Z,14.75
2018-02-27T03:18:27.215Z,12.35
2018-02-27T03:20:57.944Z,11.15
2018-02-27T03:23:27.194Z,9.27
2018-02-27T03:25:56.394Z,14.48
2018-02-27T03:28:25.954Z,10.45
2018-02-27T03:30:55.173Z,9.82
2018-02-27T03:33:24.386Z,10.43
2018-02-27T03:35:54.024Z,11.93
2018-02-27T03:38:23.265Z,12.02
2018-02-27T03:40:52.466Z,7.12
2018-02-27T03:43:23.159Z,13.43
2018-02-27T03:45:52.390Z,7.82
2018-02-27T03:48:21.651Z,13.35
2018-02-27T03:50:51.421Z,10.00
2018-02-27T03:53:20.756Z,7.65
2018-02-27T03:55:50.031Z,11.48
2018-02-27T04:00:59.216Z,7.05
2018-02-27T04:03:28.507Z,15.07
2018-02-27T04:05:58.415Z,12.90
2018-02-27T04:08:27.732Z,12.23
2018-02-27T04:10:57.012Z,16.05
2018-02-27T04:13:26.687Z,14.63
2018-02-27T04:15:55.964Z,13.00
2018-02-27T04:18:25.489Z,11.43
2018-02-27T04:20:55.114Z,13.57
2018-02-27T04:23:24.363Z,13.82
2018-02-27T04:25:53.624Z,11.50
2018-02-27T04:28:23.227Z,12.02
2018-02-27T04:30:52.450Z,14.90
2018-02-27T04:33:21.734Z,16.40
2018-02-27T04:35:50.960Z,11.25
2018-02-27T04:38:20.198Z,12.85
2018-02-27T04:40:49.748Z,11.63
2018-02-27T04:43:19.032Z,12.77
2018-02-27T04:45:48.238Z,7.95
2018-02-27T04:48:17.848Z,11.65
2018-02-27T04:50:48.085Z,9.80
2018-02-27T04:53:17.306Z,11.40
2018-02-27T04:55:47.114Z,9.82
2018-02-27T04:58:16.458Z,11.52
2018-02-27T05:00:45.687Z,10.85
2018-02-27T05:03:15.381Z,9.77
2018-02-27T05:05:44.599Z,11.88
2018-02-27T05:08:13.925Z,9.75
2018-02-27T05:10:43.512Z,12.77
2018-02-27T05:13:12.705Z,10.55
2018-02-27T05:15:41.943Z,11.18
2018-02-27T05:18:11.644Z,13.25
2018-02-27T05:20:40.901Z,16.80
2018-02-27T05:23:10.121Z,15.27
2018-02-27T05:25:39.862Z,17.37
2018-02-27T05:28:09.189Z,13.43
2018-02-27T05:30:39.454Z,17.98
2018-02-27T05:33:09.055Z,12.52
2018-02-27T05:35:38.451Z,14.32
2018-02-27T05:38:07.835Z,8.38
2018-02-27T05:40:37.672Z,11.63
2018-02-27T05:43:07.001Z,19.42
2018-02-27T05:45:36.778Z,12.65
2018-02-27T05:48:06.915Z,16.27
2018-02-27T05:50:36.295Z,23.75
2018-02-27T05:53:05.536Z,15.15
2018-02-27T05:55:35.063Z,20.30
2018-02-27T05:58:05.263Z,14.68
2018-02-27T06:00:34.507Z,12.50
2018-02-27T06:03:05.201Z,17.70
2018-02-27T06:05:34.447Z,16.65
2018-02-27T06:08:04.407Z,16.92
2018-02-27T06:10:34.043Z,21.50
2018-02-27T06:13:03.571Z,15.15
2018-02-27T06:15:32.861Z,16.35
2018-02-27T06:18:03.147Z,13.70
2018-02-27T06:20:32.412Z,13.15
2018-02-27T06:23:02.084Z,14.10
2018-02-27T06:25:31.908Z,20.05
2018-02-27T06:28:03.118Z,18.35
2018-02-27T06:30:32.365Z,11.32
2018-02-27T06:33:03.098Z,9.63
2018-02-27T06:35:32.410Z,12.02
2018-02-27T06:38:03.051Z,16.45
2018-02-27T06:40:32.679Z,13.50
2018-02-27T06:43:02.128Z,12.37
2018-02-27T06:45:31.346Z,16.27
2018-02-27T06:48:00.583Z,26.45
2018-02-27T06:50:30.005Z,24.65
2018-02-27T06:52:59.627Z,16.95
2018-02-27T06:55:28.890Z,13.48
2018-02-27T06:57:58.111Z,13.70
2018-02-27T07:00:27.406Z,11.73
2018-02-27T07:02:56.683Z,13.88
2018-02-27T07:05:26.339Z,15.63
2018-02-27T07:07:55.563Z,33.95
2018-02-27T07:10:24.846Z,22.55
2018-02-27T07:12:55.022Z,19.40
2018-02-27T07:15:24.252Z,13.50
2018-02-27T07:17:53.483Z,13.50
2018-02-27T07:20:23.084Z,9.50
2018-02-27T07:22:52.376Z,8.75
2018-02-27T07:25:21.607Z,11.73
2018-02-27T07:27:51.265Z,9.15
2018-02-27T07:30:20.514Z,9.23
2018-02-27T07:32:49.753Z,10.93
2018-02-27T07:35:19.505Z,9.77
2018-02-27T07:37:49.052Z,15.50
2018-02-27T07:40:18.286Z,10.88
2018-02-27T07:42:48.156Z,7.15
2018-02-27T07:45:17.431Z,8.60
2018-02-27T07:47:46.863Z,4.75
2018-02-27T07:50:16.586Z,13.52
2018-02-27T07:52:45.883Z,9.48
2018-02-27T07:55:15.131Z,7.62
2018-02-27T07:57:44.861Z,11.52
2018-02-27T08:00:14.117Z,9.60
2018-02-27T08:02:43.653Z,12.10
2018-02-27T08:05:13.462Z,22.25
2018-02-27T08:07:42.708Z,10.70
2018-02-27T08:10:11.957Z,27.62
2018-02-27T08:12:41.203Z,15.13
2018-02-27T08:15:10.502Z,6.53
2018-02-27T08:17:40.579Z,13.52
2018-02-27T08:20:10.470Z,7.45
2018-02-27T08:22:39.912Z,12.85
2018-02-27T08:25:09.847Z,11.05
2018-02-27T08:27:39.298Z,12.00
2018-02-27T08:30:09.370Z,7.50
2018-02-27T08:32:44.493Z,8.40
2018-02-27T08:35:17.065Z,16.08
2018-02-27T08:37:46.397Z,13.90
2018-02-27T08:40:15.978Z,16.37
2018-02-27T08:42:45.459Z,14.93
2018-02-27T08:45:14.698Z,15.50
2018-02-27T08:47:45.447Z,9.07
2018-02-27T08:50:14.816Z,9.95
2018-02-27T08:52:44.113Z,6.40
2018-02-27T08:55:13.883Z,17.45
2018-02-27T08:57:43.596Z,14.70
2018-02-27T09:00:12.858Z,17.80
2018-02-27T09:02:42.436Z,10.65
2018-02-27T09:05:11.727Z,9.43
2018-02-27T09:07:40.958Z,30.23
2018-02-27T09:10:10.525Z,34.80
2018-02-27T09:12:39.806Z,29.98
2018-02-27T09:15:09.051Z,18.25
2018-02-27T09:17:38.990Z,19.40
2018-02-27T09:20:08.240Z,10.88
2018-02-27T09:22:37.468Z,17.27
2018-02-27T09:25:06.736Z,15.98
2018-02-27T09:27:36.209Z,18.70
2018-02-27T09:30:06.797Z,12.27
2018-02-27T09:32:36.213Z,16.03
2018-02-27T09:35:05.502Z,12.23
2018-02-27T09:37:35.095Z,17.95
2018-02-27T09:40:05.304Z,15.07
2018-02-27T09:42:34.561Z,14.15
2018-02-27T09:45:04.377Z,19.37
2018-02-27T09:47:33.655Z,16.80
2018-02-27T09:50:03.687Z,18.62
2018-02-27T09:52:34.258Z,16.55
2018-02-27T09:55:03.913Z,15.05
2018-02-27T09:57:33.158Z,15.13
2018-02-27T10:00:04.706Z,22.50
2018-02-27T10:02:33.934Z,17.80
2018-02-27T10:05:03.380Z,22.27
2018-02-27T10:07:32.632Z,15.80
2018-02-27T10:10:02.883Z,16.00
2018-02-27T10:12:32.148Z,42.53
2018-02-27T10:15:01.420Z,17.07
2018-02-27T10:17:31.038Z,18.87
2018-02-27T10:20:00.244Z,15.43
2018-02-27T10:22:29.476Z,13.17
2018-02-27T10:24:58.698Z,12.90
2018-02-27T10:27:28.023Z,16.57
2018-02-27T10:29:57.585Z,16.17
2018-02-27T10:32:26.837Z,20.60
2018-02-27T10:34:56.303Z,14.37
2018-02-27T10:37:25.536Z,15.33
2018-02-27T10:39:54.831Z,17.07
2018-02-27T10:42:24.384Z,21.03
2018-02-27T10:44:53.674Z,14.80
2018-02-27T10:47:22.958Z,20.83
2018-02-27T10:49:52.215Z,20.43
2018-02-27T10:52:21.437Z,18.53
2018-02-27T10:54:51.563Z,19.50
2018-02-27T10:57:20.795Z,21.83
2018-02-27T10:59:50.006Z,18.90
2018-02-27T11:02:19.511Z,20.70
2018-02-27T11:04:48.807Z,22.63
2018-02-27T11:07:18.114Z,24.00
2018-02-27T11:09:49.771Z,23.93
2018-02-27T11:12:19.017Z,19.40
2018-02-27T11:14:48.274Z,18.60
2018-02-27T11:17:17.825Z,21.07
2018-02-27T11:19:47.688Z,16.70
2018-02-27T11:22:17.026Z,17.07
2018-02-27T11:24:46.763Z,20.60
2018-02-27T11:27:16.064Z,19.87
2018-02-27T11:29:45.323Z,18.97
2018-02-27T11:32:14.910Z,19.53
2018-02-27T11:34:44.538Z,16.67
2018-02-27T11:37:13.756Z,17.50
2018-02-27T11:39:43.336Z,24.10
2018-02-27T11:42:12.596Z,20.80
2018-02-27T11:44:41.947Z,21.60
2018-02-27T11:47:11.705Z,23.93
2018-02-27T11:49:40.966Z,23.53
2018-02-27T11:52:10.206Z,25.13
2018-02-27T11:54:39.959Z,19.27
2018-02-27T11:57:09.189Z,16.10
2018-02-27T11:59:38.592Z,22.17
2018-02-27T12:02:07.825Z,17.07
2018-02-27T12:04:37.134Z,29.73
2018-02-27T12:07:06.892Z,20.10
2018-02-27T12:09:36.205Z,20.83
2018-02-27T12:12:06.122Z,19.70
2018-02-27T12:14:35.684Z,22.73
2018-02-27T12:17:06.502Z,25.33
2018-02-27T12:19:35.978Z,18.60
2018-02-27T12:22:06.664Z,21.63
2018-02-27T12:24:36.000Z,17.70
2018-02-27T12:27:05.330Z,16.90
2018-02-27T12:29:36.008Z,19.03
2018-02-27T12:32:06.705Z,18.60
2018-02-27T12:34:36.026Z,22.90
2018-02-27T12:37:05.998Z,62.00
2018-02-27T12:39:35.295Z,31.00
2018-02-27T12:42:05.101Z,23.50
2018-02-27T12:44:34.837Z,29.00
2018-02-27T12:47:04.384Z,22.03
2018-02-27T12:49:33.607Z,40.20
2018-02-27T12:52:04.454Z,48.37
2018-02-27T12:54:33.819Z,51.77
2018-02-27T12:57:03.239Z,18.13
2018-02-27T12:59:33.023Z,24.33
2018-02-27T13:02:03.729Z,48.83
2018-02-27T13:04:32.998Z,58.13
2018-02-27T13:07:02.805Z,23.83
2018-02-27T13:09:32.074Z,20.77
2018-02-27T13:12:01.483Z,48.77
2018-02-27T13:14:30.771Z,24.27
2018-02-27T13:17:00.047Z,21.10
2018-02-27T13:19:29.887Z,23.33
2018-02-27T13:21:59.302Z,33.23
2018-02-27T13:24:28.765Z,19.23
2018-02-27T13:26:58.388Z,32.53
2018-02-27T13:29:27.792Z,30.37
2018-02-27T13:31:57.075Z,24.10
2018-02-27T13:34:26.778Z,22.90
2018-02-27T13:36:56.068Z,16.80
2018-02-27T13:39:25.405Z,33.00
2018-02-27T13:41:55.000Z,22.40
2018-02-27T13:44:24.271Z,15.80
2018-02-27T13:46:53.662Z,15.33
2018-02-27T13:49:25.041Z,25.47
2018-02-27T13:51:53.844Z,23.87
2018-02-27T13:54:23.487Z,26.47
2018-02-27T13:56:54.933Z,18.70
2018-02-27T13:59:24.473Z,30.10
2018-02-27T14:01:54.730Z,34.23
2018-02-27T14:04:24.483Z,23.83
2018-02-27T14:06:53.738Z,30.50
2018-02-27T14:09:23.230Z,15.73
2018-02-27T14:11:53.022Z,17.70
2018-02-27T14:14:22.335Z,21.17
2018-02-27T14:16:51.602Z,16.63
2018-02-27T14:19:21.259Z,18.17
2018-02-27T14:21:50.510Z,19.13
2018-02-27T14:24:19.935Z,21.57
2018-02-27T14:26:49.280Z,15.67
2018-02-27T14:29:18.559Z,14.97
2018-02-27T14:31:48.120Z,19.20
2018-02-27T14:34:17.347Z,18.17
2018-02-27T14:36:46.595Z,17.27
2018-02-27T14:39:15.836Z,17.63
2018-02-27T14:41:45.073Z,21.70
2018-02-27T14:44:14.654Z,20.50
2018-02-27T14:46:43.924Z,14.80
2018-02-27T14:49:13.177Z,15.47
2018-02-27T14:51:43.136Z,15.37
2018-02-27T14:54:12.393Z,15.90
2018-02-27T14:59:19.258Z,21.37
2018-02-27T15:01:48.775Z,19.47
2018-02-27T15:04:18.501Z,18.10
2018-02-27T15:06:47.810Z,17.23
2018-02-27T15:09:17.026Z,18.60
2018-02-27T15:11:46.552Z,15.03
2018-02-27T15:14:15.789Z,15.20
2018-02-27T15:16:45.066Z,23.30
2018-02-27T15:19:14.577Z,21.37
2018-02-27T15:21:43.864Z,25.37
2018-02-27T15:24:13.123Z,24.70
2018-02-27T15:26:42.803Z,17.07
2018-02-27T15:29:12.102Z,41.40
2018-02-27T15:31:41.348Z,63.60
2018-02-27T15:34:10.625Z,29.97
2018-02-27T15:36:40.137Z,47.70
2018-02-27T15:39:09.697Z,43.40
2018-02-27T15:41:39.079Z,62.07
2018-02-27T15:44:08.379Z,49.23
2018-02-27T15:46:38.176Z,27.63
2018-02-27T15:49:08.079Z,18.40
2018-02-27T15:51:37.523Z,38.93
2018-02-27T15:54:07.107Z,29.40
2018-02-27T15:56:36.464Z,37.03
2018-02-27T15:59:05.783Z,26.33
2018-02-27T16:01:35.463Z,22.03
2018-02-27T16:04:06.270Z,33.97
2018-02-27T16:06:35.554Z,26.10
2018-02-27T16:09:06.229Z,15.93
2018-02-27T16:11:35.719Z,20.20
2018-02-27T16:14:05.669Z,15.07
2018-02-27T16:16:35.261Z,26.90
2018-02-27T16:19:04.691Z,21.63
2018-02-27T16:21:34.033Z,16.40
2018-02-27T16:24:05.088Z,30.67
2018-02-27T16:26:34.305Z,21.33
2018-02-27T16:29:03.799Z,14.37
2018-02-27T16:31:33.423Z,18.27
2018-02-27T16:34:04.994Z,16.63
2018-02-27T16:36:34.258Z,22.07
2018-02-27T16:39:04.263Z,15.23
2018-02-27T16:41:33.494Z,22.87
2018-02-27T16:44:04.886Z,24.63
2018-02-27T16:46:34.154Z,19.33
2018-02-27T16:49:03.737Z,21.50
2018-02-27T16:51:33.277Z,18.10
2018-02-27T16:54:03.388Z,22.80
2018-02-27T16:56:32.713Z,15.43
2018-02-27T16:59:02.643Z,22.00
2018-02-27T17:01:31.914Z,26.27
2018-02-27T17:04:03.361Z,24.83
2018-02-27T17:06:32.895Z,26.57
2018-02-27T17:09:02.362Z,24.58
2018-02-27T17:11:31.605Z,18.73
2018-02-27T17:14:01.239Z,21.35
2018-02-27T17:16:30.472Z,21.08
2018-02-27T17:19:00.168Z,22.90
2018-02-27T17:21:29.764Z,25.10
2018-02-27T17:23:59.031Z,15.70
2018-02-27T17:26:28.287Z,20.77
2018-02-27T17:28:57.823Z,22.45
2018-02-27T17:31:27.110Z,21.05
2018-02-27T17:33:56.387Z,20.70
2018-02-27T17:36:25.946Z,22.30
2018-02-27T17:38:55.217Z,19.45
2018-02-27T17:41:24.441Z,25.67
2018-02-27T17:43:53.970Z,22.80
2018-02-27T17:46:23.194Z,29.70
2018-02-27T17:48:52.414Z,34.88
2018-02-27T17:51:21.994Z,27.20
2018-02-27T17:53:51.230Z,32.40
2018-02-27T17:56:20.489Z,31.08
2018-02-27T17:58:49.725Z,56.33
2018-02-27T18:01:18.997Z,58.58
2018-02-27T18:03:48.531Z,43.87
2018-02-27T18:06:17.936Z,48.57
2018-02-27T18:08:47.278Z,39.28
2018-02-27T18:11:16.546Z,41.08
2018-02-27T18:13:45.808Z,31.55
2018-02-27T18:16:15.384Z,32.63
2018-02-27T18:18:44.774Z,28.02
2018-02-27T18:21:14.050Z,20.27
2018-02-27T18:23:44.955Z,20.08
2018-02-27T18:26:14.340Z,19.95
2018-02-27T18:28:44.216Z,27.02
2018-02-27T18:31:14.065Z,19.52
2018-02-27T18:33:43.335Z,28.50
2018-02-27T18:36:12.896Z,17.95
2018-02-27T18:38:42.436Z,29.55
2018-02-27T18:41:11.750Z,19.08
2018-02-27T18:43:41.171Z,18.05
2018-02-27T18:46:10.514Z,17.95
2018-02-27T18:48:40.420Z,27.85
2018-02-27T18:51:09.706Z,22.23
2018-02-27T18:53:39.534Z,21.37
2018-02-27T18:56:08.796Z,31.55
2018-02-27T18:58:38.106Z,21.15
2018-02-27T19:01:07.690Z,20.62
2018-02-27T19:03:36.913Z,17.40
2018-02-27T19:06:06.179Z,17.83
2018-02-27T19:08:35.847Z,21.45
2018-02-27T19:11:05.605Z,28.75
2018-02-27T19:13:34.890Z,28.15
2018-02-27T19:16:06.142Z,21.30
2018-02-27T19:18:35.369Z,29.33
2018-02-27T19:21:04.675Z,21.75
2018-02-27T19:23:33.937Z,27.25
2018-02-27T19:26:04.157Z,50.58
2018-02-27T19:28:33.859Z,33.40
2018-02-27T19:31:03.270Z,26.90
2018-02-27T19:33:32.724Z,26.85
2018-02-27T19:36:03.855Z,23.50
2018-02-27T19:38:34.621Z,33.13
2018-02-27T19:41:34.439Z,19.15
2018-02-27T19:44:04.659Z,22.87
2018-02-27T19:46:33.893Z,20.08
2018-02-27T19:49:03.586Z,16.20
2018-02-27T19:51:32.969Z,20.65
2018-02-27T19:54:04.212Z,25.00
2018-02-27T19:56:33.451Z,27.50
2018-02-27T19:59:03.839Z,21.45
2018-02-27T20:01:33.067Z,18.85
2018-02-27T20:04:03.974Z,23.98
2018-02-27T20:06:33.233Z,24.23
2018-02-27T20:09:02.562Z,25.20
2018-02-27T20:11:31.885Z,22.33
2018-02-27T20:14:01.318Z,32.67
2018-02-27T20:16:31.107Z,36.15
2018-02-27T20:19:00.544Z,22.73
2018-02-27T20:21:29.832Z,25.10
2018-02-27T20:24:32.050Z,23.92
2018-02-27T20:27:01.462Z,29.63
2018-02-27T20:29:31.173Z,31.30
2018-02-27T20:32:00.562Z,28.17
2018-02-27T20:34:33.589Z,32.17
2018-02-27T20:37:03.213Z,35.83
2018-02-27T20:39:32.512Z,23.20
2018-02-27T20:42:03.538Z,23.95
2018-02-27T20:44:33.331Z,27.37
2018-02-27T20:47:02.618Z,22.13
2018-02-27T20:49:31.847Z,33.55
2018-02-27T20:52:03.455Z,33.20
2018-02-27T20:54:33.785Z,30.45
2018-02-27T20:57:03.500Z,27.87
2018-02-27T20:59:32.695Z,30.55
2018-02-27T21:02:03.362Z,26.15
2018-02-27T21:04:32.951Z,22.30
2018-02-27T21:07:02.422Z,38.50
2018-02-27T21:09:31.720Z,28.50
2018-02-27T21:12:01.391Z,24.30
2018-02-27T21:14:30.924Z,26.65
2018-02-27T21:17:00.634Z,37.65
2018-02-27T21:19:29.945Z,24.92
2018-02-27T21:21:59.489Z,23.83
2018-02-27T21:24:29.273Z,23.77
2018-02-27T21:26:58.566Z,27.05
2018-02-27T21:29:27.833Z,32.33
2018-02-27T21:31:57.533Z,31.60
2018-02-27T21:34:26.867Z,30.98
2018-02-27T21:36:56.536Z,30.65
2018-02-27T21:39:26.251Z,33.05
2018-02-27T21:41:55.557Z,27.33
2018-02-27T21:44:24.789Z,25.30
2018-02-27T21:46:54.403Z,31.67
2018-02-27T21:49:23.651Z,28.42
2018-02-27T21:51:52.892Z,28.98
2018-02-27T21:54:22.476Z,26.95
2018-02-27T21:56:51.719Z,31.98
2018-02-27T21:59:20.962Z,27.95
2018-02-27T22:01:50.790Z,37.75
2018-02-27T22:04:20.138Z,25.90
2018-02-27T22:06:49.493Z,32.15
2018-02-27T22:09:19.386Z,33.30
2018-02-27T22:11:49.016Z,30.08
2018-02-27T22:14:18.233Z,33.47
2018-02-27T22:16:47.973Z,27.40
2018-02-27T22:19:17.229Z,33.25
2018-02-27T22:21:48.638Z,31.12
2018-02-27T22:24:19.854Z,30.02
2018-02-27T22:26:51.848Z,30.73
2018-02-27T22:29:23.492Z,28.60
2018-02-27T22:31:55.322Z,26.65
2018-02-27T22:34:26.880Z,25.90
2018-02-27T22:36:58.500Z,25.67
2018-02-27T22:39:29.757Z,23.50
2018-02-27T22:42:01.227Z,26.67
2018-02-27T22:44:31.848Z,28.33
2018-02-27T22:47:03.333Z,28.67
2018-02-27T22:49:33.344Z,23.75
2018-02-27T22:52:03.118Z,26.20
2018-02-27T22:54:32.575Z,26.67
2018-02-27T22:57:02.663Z,24.92
2018-02-27T22:59:32.209Z,25.12
2018-02-27T23:02:02.163Z,23.75
2018-02-27T23:04:31.880Z,26.67
2018-02-27T23:07:01.234Z,28.52
2018-02-27T23:09:30.606Z,40.50
2018-02-27T23:11:59.813Z,26.40
2018-02-27T23:14:29.076Z,30.65
2018-02-27T23:16:58.784Z,27.50
2018-02-27T23:19:28.096Z,24.37
2018-02-27T23:21:57.354Z,25.85
2018-02-27T23:24:29.728Z,32.72
2018-02-27T23:27:03.095Z,26.52
2018-02-27T23:29:34.330Z,32.38
2018-02-27T23:32:08.929Z,21.90
2018-02-27T23:35:06.696Z,28.50
2018-02-27T23:37:36.003Z,34.33
2018-02-27T23:40:05.762Z,28.83
2018-02-27T23:42:35.415Z,31.02
2018-02-27T23:45:04.748Z,25.67
2018-02-27T23:47:34.004Z,21.65
2018-02-27T23:50:04.657Z,28.30
2018-02-27T23:52:33.905Z,25.08
2018-02-27T23:55:03.348Z,31.55
2018-02-27T23:57:33.015Z,30.90
